MSC Sinfonia — H8XH — position and weather

sailwx.info

Track history (hours):
 
Tides and Currents Weather Stations Pressure Air Temp Water Temp Dewpoint Dewpoint Depression Visibility Wind Speed Wind Dir Waves Ship Positions

MSC Sinfonia

Last reported at 2017-Aug-19 22:40 UTC. Time now 2017-Aug-20 15:37 UTC.
Position N 44°00' E 014°13'.

Length 251 m; draft 6.8 m.

Type: Passenger vessel. MMSI: 356715971.

Date/timePositionNaut miles runAvg speedWind from/ knotsBaromVisibWave heightAir tempDewpointWater temp
2017-Aug-19 22:40N 44°00' E 014°13'318.8
2017-Aug-19 22:30N 44°02' E 014°10'918.5
2017-Aug-19 22:00N 44°07' E 013°59'1019.2
2017-Aug-19 21:30N 44°15' E 013°52'1018.8
2017-Aug-19 21:00N 44°23' E 013°45'918.5
2017-Aug-19 20:30N 44°31' E 013°38'918.2
2017-Aug-19 20:00N 44°39' E 013°32'918.1
2017-Aug-19 19:30N 44°46' E 013°25'917.4
2017-Aug-19 19:00N 44°53' E 013°17'917.5
2017-Aug-19 18:30N 44°60' E 013°08'917.2
2017-Aug-19 18:00N 45°05' E 012°59'817.0
2017-Aug-19 17:30N 45°10' E 012°50'917.3
2017-Aug-19 17:00N 45°16' E 012°41'917.2
2017-Aug-19 16:31N 45°22' E 012°32'713.8
2017-Aug-19 16:00N 45°26' E 012°24'3 5.8
2017-Aug-19 15:30N 45°26' E 012°20'1 2.2
2017-Aug-19 14:59N 45°26' E 012°18'0 0.0
2017-Aug-19 13:59N 45°26' E 012°18'0 0.0
2017-Aug-19 13:29N 45°26' E 012°18'0 0.0
2017-Aug-19 12:59N 45°26' E 012°18'0 0.0
2017-Aug-19 12:29N 45°26' E 012°18'0 0.0
2017-Aug-19 11:59N 45°26' E 012°18'0 0.0
2017-Aug-19 11:29N 45°26' E 012°18'0 0.0
2017-Aug-19 10:59N 45°26' E 012°18'0 0.0
2017-Aug-19 10:29N 45°26' E 012°18'0 0.0
2017-Aug-19 09:59N 45°26' E 012°18'0 0.0
2017-Aug-19 09:29N 45°26' E 012°18'0 0.0
2017-Aug-19 08:59N 45°26' E 012°18'0 0.0
2017-Aug-19 08:29N 45°26' E 012°18'0 0.0
2017-Aug-19 07:59N 45°26' E 012°18'0 0.0
2017-Aug-19 07:29N 45°26' E 012°18'0 0.0
2017-Aug-19 06:59N 45°26' E 012°18'0 0.0
2017-Aug-19 06:29N 45°26' E 012°18'0 0.0
2017-Aug-19 05:59N 45°26' E 012°18'0 0.4
2017-Aug-19 05:30N 45°26' E 012°18'3 5.5
2017-Aug-19 05:00N 45°25' E 012°22'4 7.5
2017-Aug-19 04:31N 45°25' E 012°27'4 8.4
2017-Aug-19 04:01N 45°23' E 012°33'4 8.2
2017-Aug-19 03:31N 45°20' E 012°38'4 8.5
2017-Aug-19 03:00N 45°18' E 012°43'5 9.1
2017-Aug-19 02:30N 45°15' E 012°48'5 9.4
2017-Aug-19 02:00N 45°11' E 012°51'5 9.3
2017-Aug-19 01:31N 45°07' E 012°53'5 9.6
2017-Aug-19 01:00N 45°02' E 012°55'510.0
2017-Aug-19 00:30N 44°58' E 012°58'611.5
2017-Aug-19 00:00N 44°52' E 012°60'612.1
2017-Aug-18 23:30N 44°46' E 013°02'612.2
2017-Aug-18 23:01N 44°40' E 013°04'612.1
2017-Aug-18 22:31N 44°34' E 013°07'612.6
2017-Aug-18 22:01N 44°29' E 013°10'612.7
2017-Aug-18 21:31N 44°23' E 013°13'612.3
2017-Aug-18 21:01N 44°17' E 013°16'612.4
2017-Aug-18 20:30N 44°13' E 013°23'612.3
2017-Aug-18 20:01N 44°09' E 013°30'612.4
2017-Aug-18 19:31N 44°06' E 013°37'612.8
2017-Aug-18 19:00N 44°02' E 013°44'612.7
2017-Aug-18 18:31N 43°58' E 013°50'612.0
2017-Aug-18 18:00N 43°52' E 013°49'612.5
2017-Aug-18 17:31N 43°46' E 013°45'612.2
2017-Aug-18 17:00N 43°41' E 013°39'811.6
2017-Aug-18 16:20N 43°38' E 013°29'1 0.9
2017-Aug-18 14:53N 43°37' E 013°30'0 0.0
2017-Aug-18 11:38N 43°37' E 013°30'0 0.0
2017-Aug-18 11:29N 43°37' E 013°30'9 1.8
2017-Aug-18 06:22N 43°43' E 013°40'816.2
2017-Aug-18 05:54N 43°40' E 013°51'616.5
2017-Aug-18 05:30N 43°37' E 013°58'816.7
2017-Aug-18 05:01N 43°33' E 014°09'816.8
2017-Aug-18 04:30N 43°29' E 014°19'231 9.4
2017-Aug-17 04:02N 41°20' E 018°38'016.3
2017-Aug-17 04:01N 41°20' E 018°38'816.4
2017-Aug-17 03:31N 41°12' E 018°41'816.5
2017-Aug-17 03:01N 41°04' E 018°44'1318.3
2017-Aug-17 02:20N 40°52' E 018°50'1618.2
2017-Aug-17 01:28N 40°38' E 018°57'818.0
2017-Aug-17 01:01N 40°30' E 019°01'918.0
2017-Aug-17 00:31N 40°21' E 019°04'918.2
2017-Aug-17 00:01N 40°13' E 019°08'917.8
2017-Aug-16 23:31N 40°04' E 019°12'917.5
2017-Aug-16 23:00N 39°56' E 019°16'917.4
2017-Aug-16 22:30N 39°48' E 019°20'1217.6
2017-Aug-16 21:48N 39°36' E 019°27'29014.1
2017-Aug-16 01:12N 37°14' E 024°48'419.3
2017-Aug-16 01:01N 37°16' E 024°52'1019.5
2017-Aug-16 00:31N 37°22' E 025°01'1019.1
2017-Aug-16 00:00N 37°27' E 025°12'612.2
2017-Aug-15 23:31N 37°28' E 025°19'0 0.0
2017-Aug-15 23:00N 37°28' E 025°19'0 0.0
2017-Aug-15 22:30N 37°28' E 025°19'0 0.0
2017-Aug-15 22:00N 37°28' E 025°19'0 0.0
2017-Aug-15 21:30N 37°28' E 025°19'0 0.0
2017-Aug-15 21:00N 37°28' E 025°19'0 0.0
2017-Aug-15 20:30N 37°28' E 025°19'0 0.0
2017-Aug-15 20:00N 37°28' E 025°19'0 0.0
2017-Aug-15 19:30N 37°28' E 025°19'0 0.0
2017-Aug-15 19:00N 37°28' E 025°19'0 0.0
2017-Aug-15 18:30N 37°28' E 025°19'0 0.0
2017-Aug-15 18:00N 37°28' E 025°19'0 0.0
2017-Aug-15 17:30N 37°28' E 025°19'0 0.0
2017-Aug-15 17:00N 37°28' E 025°19'0 0.3
2017-Aug-15 16:31N 37°28' E 025°19'713.9
2017-Aug-15 16:00N 37°26' E 025°11'917.3
2017-Aug-15 15:31N 37°17' E 025°14'917.3
2017-Aug-15 15:01N 37°09' E 025°18'816.6
2017-Aug-15 14:30N 37°01' E 025°17'  
2017-Aug-12 21:08N 44°26' E 013°43'218.9
2017-Aug-12 21:00N 44°28' E 013°42'918.9
2017-Aug-12 20:30N 44°36' E 013°34'919.0
2017-Aug-12 20:01N 44°44' E 013°27'1019.3
2017-Aug-12 19:30N 44°52' E 013°19'918.8
2017-Aug-12 19:00N 44°59' E 013°10'918.7
2017-Aug-12 18:30N 45°04' E 012°59'918.4
2017-Aug-12 18:00N 45°10' E 012°49'918.5
2017-Aug-12 17:31N 45°17' E 012°40'917.5
2017-Aug-12 17:00N 45°23' E 012°31'713.1
2017-Aug-12 16:31N 45°26' E 012°23'3 5.1
2017-Aug-12 16:00N 45°26' E 012°20'1 1.9
2017-Aug-12 15:28N 45°26' E 012°18'0 0.0
2017-Aug-12 14:58N 45°26' E 012°18'0 0.0
2017-Aug-12 14:28N 45°26' E 012°18'0 0.0
2017-Aug-12 13:58N 45°26' E 012°18'0 0.0
2017-Aug-12 13:28N 45°26' E 012°18'0 0.0
2017-Aug-12 13:01N 45°26' E 012°18'0 0.0
2017-Aug-12 12:28N 45°26' E 012°18'0 0.0
2017-Aug-12 12:01N 45°26' E 012°18'0 0.0
2017-Aug-12 11:31N 45°26' E 012°18'0 0.0
2017-Aug-12 11:01N 45°26' E 012°18'0 0.0
2017-Aug-12 10:31N 45°26' E 012°18'0 0.0
2017-Aug-12 10:01N 45°26' E 012°18'0 0.0
2017-Aug-12 09:28N 45°26' E 012°18'0 0.0
2017-Aug-12 09:01N 45°26' E 012°18'0 0.0
2017-Aug-12 08:31N 45°26' E 012°18'0 0.0
2017-Aug-12 08:01N 45°26' E 012°18'0 0.0
2017-Aug-12 07:31N 45°26' E 012°18'0 0.0
2017-Aug-12 06:58N 45°26' E 012°18'0 0.0
2017-Aug-12 06:31N 45°26' E 012°18'0 0.0
2017-Aug-12 06:00N 45°26' E 012°18'0 0.8
2017-Aug-12 05:30N 45°26' E 012°19'3 5.6
2017-Aug-12 05:00N 45°26' E 012°23'4 7.7
2017-Aug-12 04:30N 45°24' E 012°28'4 8.6
2017-Aug-12 04:00N 45°22' E 012°33'4 8.5
2017-Aug-12 03:30N 45°20' E 012°38'4 9.0
2017-Aug-12 03:00N 45°18' E 012°44'5 9.2
2017-Aug-12 02:30N 45°15' E 012°49'5 9.4
2017-Aug-12 02:00N 45°10' E 012°51'5 9.4
2017-Aug-12 01:30N 45°06' E 012°54'611.1
2017-Aug-12 01:00N 45°01' E 012°56'611.9
2017-Aug-12 00:30N 44°55' E 012°59'611.8
2017-Aug-12 00:00N 44°49' E 013°01'611.9
2017-Aug-11 23:30N 44°43' E 013°03'611.7
2017-Aug-11 23:00N 44°38' E 013°05'611.4
2017-Aug-11 22:30N 44°33' E 013°08'611.9
2017-Aug-11 22:00N 44°27' E 013°10'611.5
2017-Aug-11 21:30N 44°21' E 013°13'60 3.7
2017-Aug-11 05:22N 43°35' E 014°05'2416.7
2017-Aug-11 03:55N 43°23' E 014°35'816.2
2017-Aug-11 03:24N 43°20' E 014°45'233 9.4
2017-Aug-10 02:31N 40°53' E 018°50'018.5
2017-Aug-10 02:30N 40°53' E 018°50'918.6
2017-Aug-10 02:00N 40°44' E 018°54'918.7
2017-Aug-10 01:30N 40°35' E 018°58'918.4
2017-Aug-10 01:00N 40°27' E 019°02'918.1
2017-Aug-10 00:30N 40°18' E 019°06'1017.9
2017-Aug-09 23:58N 40°09' E 019°10'818.1
2017-Aug-09 23:30N 40°01' E 019°13'  
Track history (hours):
 
Tides and Currents Weather Stations Pressure Air Temp Water Temp Dewpoint Dewpoint Depression Visibility Wind Speed Wind Dir Waves Ship Positions

MSC Sinfonia

Last reported at 2017-Aug-19 22:40 UTC. Time now 2017-Aug-20 15:37 UTC.
Position N 44°00' E 014°13'.

Length 251 m; draft 6.8 m.

Type: Passenger vessel. MMSI: 356715971.

Date/timePositionNaut miles runAvg speedWind from/ knotsBaromVisibWave heightAir tempDewpointWater temp
2017-Aug-19 22:40N 44°00' E 014°13'318.8
2017-Aug-19 22:30N 44°02' E 014°10'918.5
2017-Aug-19 22:00N 44°07' E 013°59'1019.2
2017-Aug-19 21:30N 44°15' E 013°52'1018.8
2017-Aug-19 21:00N 44°23' E 013°45'918.5
2017-Aug-19 20:30N 44°31' E 013°38'918.2
2017-Aug-19 20:00N 44°39' E 013°32'918.1
2017-Aug-19 19:30N 44°46' E 013°25'917.4
2017-Aug-19 19:00N 44°53' E 013°17'917.5
2017-Aug-19 18:30N 44°60' E 013°08'917.2
2017-Aug-19 18:00N 45°05' E 012°59'817.0
2017-Aug-19 17:30N 45°10' E 012°50'917.3
2017-Aug-19 17:00N 45°16' E 012°41'917.2
2017-Aug-19 16:31N 45°22' E 012°32'713.8
2017-Aug-19 16:00N 45°26' E 012°24'3 5.8
2017-Aug-19 15:30N 45°26' E 012°20'1 2.2
2017-Aug-19 14:59N 45°26' E 012°18'0 0.0
2017-Aug-19 13:59N 45°26' E 012°18'0 0.0
2017-Aug-19 13:29N 45°26' E 012°18'0 0.0
2017-Aug-19 12:59N 45°26' E 012°18'0 0.0
2017-Aug-19 12:29N 45°26' E 012°18'0 0.0
2017-Aug-19 11:59N 45°26' E 012°18'0 0.0
2017-Aug-19 11:29N 45°26' E 012°18'0 0.0
2017-Aug-19 10:59N 45°26' E 012°18'0 0.0
2017-Aug-19 10:29N 45°26' E 012°18'0 0.0
2017-Aug-19 09:59N 45°26' E 012°18'0 0.0
2017-Aug-19 09:29N 45°26' E 012°18'0 0.0
2017-Aug-19 08:59N 45°26' E 012°18'0 0.0
2017-Aug-19 08:29N 45°26' E 012°18'0 0.0
2017-Aug-19 07:59N 45°26' E 012°18'0 0.0
2017-Aug-19 07:29N 45°26' E 012°18'0 0.0
2017-Aug-19 06:59N 45°26' E 012°18'0 0.0
2017-Aug-19 06:29N 45°26' E 012°18'0 0.0
2017-Aug-19 05:59N 45°26' E 012°18'0 0.4
2017-Aug-19 05:30N 45°26' E 012°18'3 5.5
2017-Aug-19 05:00N 45°25' E 012°22'4 7.5
2017-Aug-19 04:31N 45°25' E 012°27'4 8.4
2017-Aug-19 04:01N 45°23' E 012°33'4 8.2
2017-Aug-19 03:31N 45°20' E 012°38'4 8.5
2017-Aug-19 03:00N 45°18' E 012°43'5 9.1
2017-Aug-19 02:30N 45°15' E 012°48'5 9.4
2017-Aug-19 02:00N 45°11' E 012°51'5 9.3
2017-Aug-19 01:31N 45°07' E 012°53'5 9.6
2017-Aug-19 01:00N 45°02' E 012°55'510.0
2017-Aug-19 00:30N 44°58' E 012°58'611.5
2017-Aug-19 00:00N 44°52' E 012°60'612.1
2017-Aug-18 23:30N 44°46' E 013°02'612.2
2017-Aug-18 23:01N 44°40' E 013°04'612.1
2017-Aug-18 22:31N 44°34' E 013°07'612.6
2017-Aug-18 22:01N 44°29' E 013°10'612.7
2017-Aug-18 21:31N 44°23' E 013°13'612.3
2017-Aug-18 21:01N 44°17' E 013°16'612.4
2017-Aug-18 20:30N 44°13' E 013°23'612.3
2017-Aug-18 20:01N 44°09' E 013°30'612.4
2017-Aug-18 19:31N 44°06' E 013°37'612.8
2017-Aug-18 19:00N 44°02' E 013°44'612.7
2017-Aug-18 18:31N 43°58' E 013°50'612.0
2017-Aug-18 18:00N 43°52' E 013°49'612.5
2017-Aug-18 17:31N 43°46' E 013°45'612.2
2017-Aug-18 17:00N 43°41' E 013°39'811.6
2017-Aug-18 16:20N 43°38' E 013°29'1 0.9
2017-Aug-18 14:53N 43°37' E 013°30'0 0.0
2017-Aug-18 11:38N 43°37' E 013°30'0 0.0
2017-Aug-18 11:29N 43°37' E 013°30'9 1.8
2017-Aug-18 06:22N 43°43' E 013°40'816.2
2017-Aug-18 05:54N 43°40' E 013°51'616.5
2017-Aug-18 05:30N 43°37' E 013°58'816.7
2017-Aug-18 05:01N 43°33' E 014°09'816.8
2017-Aug-18 04:30N 43°29' E 014°19'231 9.4
2017-Aug-17 04:02N 41°20' E 018°38'016.3
2017-Aug-17 04:01N 41°20' E 018°38'816.4
2017-Aug-17 03:31N 41°12' E 018°41'816.5
2017-Aug-17 03:01N 41°04' E 018°44'1318.3
2017-Aug-17 02:20N 40°52' E 018°50'1618.2
2017-Aug-17 01:28N 40°38' E 018°57'818.0
2017-Aug-17 01:01N 40°30' E 019°01'918.0
2017-Aug-17 00:31N 40°21' E 019°04'918.2
2017-Aug-17 00:01N 40°13' E 019°08'917.8
2017-Aug-16 23:31N 40°04' E 019°12'917.5
2017-Aug-16 23:00N 39°56' E 019°16'917.4
2017-Aug-16 22:30N 39°48' E 019°20'1217.6
2017-Aug-16 21:48N 39°36' E 019°27'29014.1
2017-Aug-16 01:12N 37°14' E 024°48'419.3
2017-Aug-16 01:01N 37°16' E 024°52'1019.5
2017-Aug-16 00:31N 37°22' E 025°01'1019.1
2017-Aug-16 00:00N 37°27' E 025°12'612.2
2017-Aug-15 23:31N 37°28' E 025°19'0 0.0
2017-Aug-15 23:00N 37°28' E 025°19'0 0.0
2017-Aug-15 22:30N 37°28' E 025°19'0 0.0
2017-Aug-15 22:00N 37°28' E 025°19'0 0.0
2017-Aug-15 21:30N 37°28' E 025°19'0 0.0
2017-Aug-15 21:00N 37°28' E 025°19'0 0.0
2017-Aug-15 20:30N 37°28' E 025°19'0 0.0
2017-Aug-15 20:00N 37°28' E 025°19'0 0.0
2017-Aug-15 19:30N 37°28' E 025°19'0 0.0
2017-Aug-15 19:00N 37°28' E 025°19'0 0.0
2017-Aug-15 18:30N 37°28' E 025°19'0 0.0
2017-Aug-15 18:00N 37°28' E 025°19'0 0.0
2017-Aug-15 17:30N 37°28' E 025°19'0 0.0
2017-Aug-15 17:00N 37°28' E 025°19'0 0.3
2017-Aug-15 16:31N 37°28' E 025°19'713.9
2017-Aug-15 16:00N 37°26' E 025°11'917.3
2017-Aug-15 15:31N 37°17' E 025°14'917.3
2017-Aug-15 15:01N 37°09' E 025°18'816.6
2017-Aug-15 14:30N 37°01' E 025°17'  
2017-Aug-12 21:08N 44°26' E 013°43'218.9
2017-Aug-12 21:00N 44°28' E 013°42'918.9
2017-Aug-12 20:30N 44°36' E 013°34'919.0
2017-Aug-12 20:01N 44°44' E 013°27'1019.3
2017-Aug-12 19:30N 44°52' E 013°19'918.8
2017-Aug-12 19:00N 44°59' E 013°10'918.7
2017-Aug-12 18:30N 45°04' E 012°59'918.4
2017-Aug-12 18:00N 45°10' E 012°49'918.5
2017-Aug-12 17:31N 45°17' E 012°40'917.5
2017-Aug-12 17:00N 45°23' E 012°31'713.1
2017-Aug-12 16:31N 45°26' E 012°23'3 5.1
2017-Aug-12 16:00N 45°26' E 012°20'1 1.9
2017-Aug-12 15:28N 45°26' E 012°18'0 0.0
2017-Aug-12 14:58N 45°26' E 012°18'0 0.0
2017-Aug-12 14:28N 45°26' E 012°18'0 0.0
2017-Aug-12 13:58N 45°26' E 012°18'0 0.0
2017-Aug-12 13:28N 45°26' E 012°18'0 0.0
2017-Aug-12 13:01N 45°26' E 012°18'0 0.0
2017-Aug-12 12:28N 45°26' E 012°18'0 0.0
2017-Aug-12 12:01N 45°26' E 012°18'0 0.0
2017-Aug-12 11:31N 45°26' E 012°18'0 0.0
2017-Aug-12 11:01N 45°26' E 012°18'0 0.0
2017-Aug-12 10:31N 45°26' E 012°18'0 0.0
2017-Aug-12 10:01N 45°26' E 012°18'0 0.0
2017-Aug-12 09:28N 45°26' E 012°18'0 0.0
2017-Aug-12 09:01N 45°26' E 012°18'0 0.0
2017-Aug-12 08:31N 45°26' E 012°18'0 0.0
2017-Aug-12 08:01N 45°26' E 012°18'0 0.0
2017-Aug-12 07:31N 45°26' E 012°18'0 0.0
2017-Aug-12 06:58N 45°26' E 012°18'0 0.0
2017-Aug-12 06:31N 45°26' E 012°18'0 0.0
2017-Aug-12 06:00N 45°26' E 012°18'0 0.8
2017-Aug-12 05:30N 45°26' E 012°19'3 5.6
2017-Aug-12 05:00N 45°26' E 012°23'4 7.7
2017-Aug-12 04:30N 45°24' E 012°28'4 8.6
2017-Aug-12 04:00N 45°22' E 012°33'4 8.5
2017-Aug-12 03:30N 45°20' E 012°38'4 9.0
2017-Aug-12 03:00N 45°18' E 012°44'5 9.2
2017-Aug-12 02:30N 45°15' E 012°49'5 9.4
2017-Aug-12 02:00N 45°10' E 012°51'5 9.4
2017-Aug-12 01:30N 45°06' E 012°54'611.1
2017-Aug-12 01:00N 45°01' E 012°56'611.9
2017-Aug-12 00:30N 44°55' E 012°59'611.8
2017-Aug-12 00:00N 44°49' E 013°01'611.9
2017-Aug-11 23:30N 44°43' E 013°03'611.7
2017-Aug-11 23:00N 44°38' E 013°05'611.4
2017-Aug-11 22:30N 44°33' E 013°08'611.9
2017-Aug-11 22:00N 44°27' E 013°10'611.5
2017-Aug-11 21:30N 44°21' E 013°13'60 3.7
2017-Aug-11 05:22N 43°35' E 014°05'2416.7
2017-Aug-11 03:55N 43°23' E 014°35'816.2
2017-Aug-11 03:24N 43°20' E 014°45'233 9.4
2017-Aug-10 02:31N 40°53' E 018°50'018.5
2017-Aug-10 02:30N 40°53' E 018°50'918.6
2017-Aug-10 02:00N 40°44' E 018°54'918.7
2017-Aug-10 01:30N 40°35' E 018°58'918.4
2017-Aug-10 01:00N 40°27' E 019°02'918.1
2017-Aug-10 00:30N 40°18' E 019°06'1017.9
2017-Aug-09 23:58N 40°09' E 019°10'818.1
2017-Aug-09 23:30N 40°01' E 019°13'  

Dump ship's entire track history